Time;durP1;ratioP1;P1;durP2;ratioP2;P2;SDS_P1;SDS_P2;PMS_P1;PMS_P2;Temp;Humidity;BMP_temperature;BMP_pressure;BME280_temperature;BME280_humidity;BME280_pressure;Samples;Min_cycle;Max_cycle;Signal;HPM_P1;HPM_P2
2021/04/02 00:06:05;;;;;;;8.90;7.90;;;;;;;;;;4867072;28;20121;-58
2021/04/02 00:08:31;;;;;;;12.25;8.73;;;;;;;;;;4217693;34;20130;-59
2021/04/02 00:10:58;;;;;;;9.05;8.15;;;;;;;;;;4217807;34;20094;-60
2021/04/02 00:13:29;;;;;;;9.27;7.68;;;;;;;;;;4219081;34;20141;-58
2021/04/02 00:15:55;;;;;;;8.05;7.25;;;;;;;;;;4219787;34;20640;-59
2021/04/02 00:18:25;;;;;;;7.53;6.75;;;;;;;;;;4219963;34;20112;-58
2021/04/02 00:20:52;;;;;;;10.65;7.70;;;;;;;;;;4219861;34;20136;-59
2021/04/02 00:23:21;;;;;;;10.23;7.93;;;;;;;;;;4220132;34;20189;-59
2021/04/02 00:25:47;;;;;;;8.50;7.70;;;;;;;;;;4206772;34;20211;-59
2021/04/02 00:28:13;;;;;;;8.65;7.30;;;;;;;;;;4219843;34;20200;-61
2021/04/02 00:30:41;;;;;;;8.35;7.55;;;;;;;;;;4220038;34;20526;-59
2021/04/02 00:33:07;;;;;;;9.00;8.10;;;;;;;;;;4219734;34;20114;-59
2021/04/02 00:35:34;;;;;;;9.10;7.90;;;;;;;;;;4206748;34;20209;-58
2021/04/02 00:38:00;;;;;;;8.65;7.78;;;;;;;;;;4206829;34;20125;-59
2021/04/02 00:40:31;;;;;;;9.68;7.97;;;;;;;;;;4219654;34;20180;-59
2021/04/02 00:42:57;;;;;;;8.40;7.50;;;;;;;;;;4219910;34;20180;-58
2021/04/02 00:45:23;;;;;;;8.40;7.60;;;;;;;;;;4219701;34;20142;-58
2021/04/02 00:47:49;;;;;;;9.65;7.43;;;;;;;;;;4219576;34;20701;-58
2021/04/02 00:50:24;;;;;;;10.35;8.13;;;;;;;;;;4219624;34;20212;-58
2021/04/02 00:52:50;;;;;;;8.77;7.65;;;;;;;;;;4206812;34;20149;-58
2021/04/02 00:55:16;;;;;;;8.45;7.55;;;;;;;;;;4219619;34;20608;-58
2021/04/02 00:57:42;;;;;;;9.45;7.65;;;;;;;;;;4219567;34;20109;-59
2021/04/02 01:00:09;;;;;;;9.07;8.18;;;;;;;;;;4206613;34;20101;-58
2021/04/02 01:02:35;;;;;;;9.00;7.47;;;;;;;;;;4219389;34;20101;-59
2021/04/02 01:05:05;;;;;;;8.82;8.00;;;;;;;;;;4206670;34;20128;-58
2021/04/02 01:07:31;;;;;;;8.73;7.57;;;;;;;;;;4222774;33;20212;-59
2021/04/02 01:09:57;;;;;;;9.10;8.20;;;;;;;;;;4233531;33;20468;-58
2021/04/02 01:12:22;;;;;;;8.55;7.35;;;;;;;;;;4220304;33;20124;-58
2021/04/02 01:14:48;;;;;;;8.68;7.75;;;;;;;;;;4233375;33;20220;-59
2021/04/02 01:17:14;;;;;;;8.68;7.78;;;;;;;;;;4233257;33;20136;-59
2021/04/02 01:19:42;;;;;;;8.18;7.37;;;;;;;;;;4220384;33;20192;-59
2021/04/02 01:22:17;;;;;;;11.77;7.72;;;;;;;;;;4209001;33;20567;-59
2021/04/02 01:25:07;;;;;;;8.15;7.35;;;;;;;;;;4220605;33;20141;-59
2021/04/02 01:28:03;;;;;;;9.82;7.50;;;;;;;;;;4233524;33;20117;-59
2021/04/02 01:30:29;;;;;;;8.75;7.85;;;;;;;;;;4233324;33;20140;-59
2021/04/02 01:32:55;;;;;;;8.25;7.07;;;;;;;;;;4220401;33;20125;-59
2021/04/02 01:35:32;;;;;;;8.73;7.82;;;;;;;;;;4220146;33;20543;-58
2021/04/02 01:38:11;;;;;;;11.93;8.05;;;;;;;;;;4233227;33;20481;-59
2021/04/02 01:40:38;;;;;;;6.25;5.32;;;;;;;;;;4221479;33;20098;-59
2021/04/02 01:43:10;;;;;;;10.32;8.43;;;;;;;;;;4196856;34;20105;-59
2021/04/02 01:45:37;;;;;;;10.10;8.27;;;;;;;;;;4194790;34;20132;-59
2021/04/02 01:48:03;;;;;;;10.70;7.78;;;;;;;;;;4206238;34;20553;-59
2021/04/02 01:50:29;;;;;;;10.75;7.62;;;;;;;;;;4206221;34;20560;-60
2021/04/02 01:52:55;;;;;;;9.23;8.23;;;;;;;;;;4194531;34;20125;-59
2021/04/02 01:55:22;;;;;;;11.88;8.40;;;;;;;;;;4219141;34;20556;-58
2021/04/02 01:57:48;;;;;;;12.02;8.98;;;;;;;;;;4194648;34;20086;-59
2021/04/02 02:00:23;;;;;;;9.43;7.05;;;;;;;;;;4194829;34;20188;-59
2021/04/02 02:02:49;;;;;;;9.65;8.10;;;;;;;;;;4218971;34;20149;-59
2021/04/02 02:05:15;;;;;;;10.45;7.85;;;;;;;;;;4194610;34;20526;-58
2021/04/02 02:07:42;;;;;;;11.68;9.00;;;;;;;;;;4218696;34;20120;-58
2021/04/02 02:10:08;;;;;;;7.28;4.90;;;;;;;;;;4205058;33;20540;-59
2021/04/02 02:12:35;;;;;;;9.10;6.55;;;;;;;;;;4208560;33;20113;-59
2021/04/02 02:15:02;;;;;;;11.93;7.62;;;;;;;;;;4208407;33;20112;-58
2021/04/02 02:17:28;;;;;;;10.88;7.43;;;;;;;;;;4233171;33;20109;-59
2021/04/02 02:19:53;;;;;;;8.07;6.82;;;;;;;;;;4208595;33;20502;-59
2021/04/02 02:22:19;;;;;;;9.20;6.72;;;;;;;;;;4219809;33;20129;-59
2021/04/02 02:24:46;;;;;;;7.03;6.03;;;;;;;;;;4208351;33;20117;-60
2021/04/02 02:27:12;;;;;;;8.52;6.68;;;;;;;;;;4220145;33;20101;-59
2021/04/02 02:29:37;;;;;;;9.27;6.18;;;;;;;;;;4233054;33;20223;-59
2021/04/02 02:32:04;;;;;;;12.50;7.75;;;;;;;;;;4232956;33;20136;-60
2021/04/02 02:34:30;;;;;;;10.63;7.97;;;;;;;;;;4232618;33;20106;-60
2021/04/02 02:36:58;;;;;;;11.07;8.05;;;;;;;;;;4232045;33;20212;-60
2021/04/02 02:39:24;;;;;;;9.10;7.25;;;;;;;;;;4219796;33;20115;-60
2021/04/02 02:41:50;;;;;;;8.13;6.20;;;;;;;;;;4219718;33;20147;-60
2021/04/02 02:44:16;;;;;;;8.30;7.05;;;;;;;;;;4232714;33;20121;-60
2021/04/02 02:46:45;;;;;;;11.12;6.93;;;;;;;;;;4232431;33;20128;-61
2021/04/02 02:49:15;;;;;;;10.23;6.90;;;;;;;;;;4232664;33;20155;-59
2021/04/02 02:51:42;;;;;;;10.15;6.85;;;;;;;;;;4232403;33;20089;-60
2021/04/02 02:54:10;;;;;;;9.95;6.80;;;;;;;;;;4219787;33;20117;-60
2021/04/02 02:56:36;;;;;;;10.23;7.47;;;;;;;;;;4232586;33;20123;-60
2021/04/02 02:59:04;;;;;;;9.45;6.50;;;;;;;;;;4208326;33;20215;-59
2021/04/02 03:01:31;;;;;;;8.68;5.68;;;;;;;;;;4207887;33;20108;-61
2021/04/02 03:03:57;;;;;;;8.55;5.15;;;;;;;;;;4208085;33;20136;-60
2021/04/02 03:06:23;;;;;;;9.18;7.45;;;;;;;;;;4207512;33;20124;-59
2021/04/02 03:08:50;;;;;;;9.93;6.50;;;;;;;;;;4219366;33;20117;-60
2021/04/02 03:11:17;;;;;;;8.57;7.37;;;;;;;;;;4219162;33;20141;-60
2021/04/02 03:13:43;;;;;;;11.57;7.72;;;;;;;;;;4219280;33;20101;-61
2021/04/02 03:16:10;;;;;;;9.52;6.95;;;;;;;;;;4219204;33;20127;-60
2021/04/02 03:18:36;;;;;;;7.78;6.03;;;;;;;;;;4219724;33;20445;-60
2021/04/02 03:21:02;;;;;;;10.80;6.43;;;;;;;;;;4204669;34;20220;-60
2021/04/02 03:23:28;;;;;;;8.88;7.53;;;;;;;;;;4202731;34;20562;-60
2021/04/02 03:25:54;;;;;;;10.82;8.93;;;;;;;;;;4216691;33;20556;-61
2021/04/02 03:28:20;;;;;;;8.43;7.53;;;;;;;;;;4204900;34;20140;-61
2021/04/02 03:30:46;;;;;;;5.97;4.30;;;;;;;;;;4203902;34;20129;-60
2021/04/02 03:33:35;;;;;;;15.10;8.13;;;;;;;;;;4216766;34;20422;-61
2021/04/02 03:36:02;;;;;;;9.43;7.65;;;;;;;;;;4216862;34;20385;-61
2021/04/02 03:38:36;;;;;;;12.57;7.30;;;;;;;;;;4216754;34;20484;-61
2021/04/02 03:41:05;;;;;;;10.20;8.57;;;;;;;;;;4203569;34;20556;-61
2021/04/02 03:43:31;;;;;;;10.73;7.43;;;;;;;;;;4204354;34;20118;-61
2021/04/02 03:45:57;;;;;;;11.70;8.20;;;;;;;;;;4205003;34;20257;-60
2021/04/02 03:48:23;;;;;;;12.13;7.12;;;;;;;;;;4207277;34;20117;-58
2021/04/02 03:50:52;;;;;;;13.18;8.80;;;;;;;;;;4207230;34;20540;-58
2021/04/02 03:53:39;;;;;;;8.10;6.07;;;;;;;;;;4219847;34;20117;-60
2021/04/02 03:56:06;;;;;;;10.10;8.38;;;;;;;;;;4219489;34;20108;-60
2021/04/02 03:58:33;;;;;;;11.85;7.43;;;;;;;;;;4219944;34;20209;-60
2021/04/02 04:01:07;;;;;;;12.37;7.97;;;;;;;;;;4207000;34;21770;-60
2021/04/02 04:03:35;;;;;;;7.15;6.15;;;;;;;;;;4218793;34;20209;-60
2021/04/02 04:06:02;;;;;;;9.93;8.23;;;;;;;;;;4207183;34;20129;-60
2021/04/02 04:08:28;;;;;;;8.57;7.50;;;;;;;;;;4221202;33;20109;-61
2021/04/02 04:10:54;;;;;;;9.07;8.02;;;;;;;;;;4209619;33;20212;-59
2021/04/02 04:13:21;;;;;;;11.57;8.23;;;;;;;;;;4232618;33;20116;-60
2021/04/02 04:15:47;;;;;;;10.45;7.93;;;;;;;;;;4221055;33;20117;-60
2021/04/02 04:18:13;;;;;;;11.35;8.50;;;;;;;;;;4221260;33;20212;-57
2021/04/02 04:20:40;;;;;;;9.32;7.97;;;;;;;;;;4220943;33;20113;-59
2021/04/02 04:23:07;;;;;;;11.90;8.15;;;;;;;;;;4220875;33;20135;-59
2021/04/02 04:25:33;;;;;;;10.68;7.53;;;;;;;;;;4220858;33;20180;-59
2021/04/02 04:27:59;;;;;;;8.10;5.68;;;;;;;;;;4220862;33;20117;-58
2021/04/02 04:30:25;;;;;;;16.25;8.63;;;;;;;;;;4233849;33;20116;-59
2021/04/02 04:32:52;;;;;;;9.80;6.53;;;;;;;;;;4220644;33;20101;-61
2021/04/02 04:35:19;;;;;;;10.85;7.93;;;;;;;;;;4221341;33;20092;-58
2021/04/02 04:37:46;;;;;;;8.57;6.93;;;;;;;;;;4220709;33;20101;-59
2021/04/02 04:40:13;;;;;;;17.10;7.37;;;;;;;;;;4231647;33;20457;-61
2021/04/02 04:42:39;;;;;;;10.20;6.45;;;;;;;;;;4205605;34;20124;-61
2021/04/02 04:45:07;;;;;;;12.15;8.43;;;;;;;;;;4206888;34;20105;-61
2021/04/02 04:47:33;;;;;;;9.77;7.97;;;;;;;;;;4206918;34;20113;-61
2021/04/02 04:49:59;;;;;;;8.23;7.43;;;;;;;;;;4194999;34;20205;-61
2021/04/02 04:52:25;;;;;;;11.52;7.35;;;;;;;;;;4219482;34;20117;-61
2021/04/02 04:54:52;;;;;;;8.82;7.25;;;;;;;;;;4195153;34;20093;-61
2021/04/02 04:57:18;;;;;;;12.85;8.55;;;;;;;;;;4219472;34;20613;-60
2021/04/02 04:59:44;;;;;;;10.00;7.95;;;;;;;;;;4194738;34;20110;-61
2021/04/02 05:02:10;;;;;;;10.88;7.82;;;;;;;;;;4206473;34;20093;-60
2021/04/02 05:04:35;;;;;;;11.07;7.80;;;;;;;;;;4195291;34;20100;-61
2021/04/02 05:07:02;;;;;;;7.95;6.22;;;;;;;;;;4195147;34;20193;-61
2021/04/02 05:09:28;;;;;;;7.93;6.65;;;;;;;;;;4201762;33;20441;-61
2021/04/02 05:11:54;;;;;;;9.50;7.80;;;;;;;;;;4220400;33;20618;-60
2021/04/02 05:14:20;;;;;;;11.88;7.90;;;;;;;;;;4209167;33;20093;-61
2021/04/02 05:16:47;;;;;;;9.98;7.57;;;;;;;;;;4209026;33;20131;-60
2021/04/02 05:19:15;;;;;;;10.90;7.45;;;;;;;;;;4220546;33;20101;-61
2021/04/02 05:21:50;;;;;;;8.18;6.65;;;;;;;;;;4221256;33;20132;-60
2021/04/02 05:24:16;;;;;;;11.30;7.85;;;;;;;;;;4233537;33;20174;-61
2021/04/02 05:26:42;;;;;;;9.43;6.82;;;;;;;;;;4233264;33;20144;-61
2021/04/02 05:29:08;;;;;;;9.80;7.18;;;;;;;;;;4220579;33;20144;-61
2021/04/02 05:31:33;;;;;;;8.70;7.35;;;;;;;;;;4233087;33;20136;-61
2021/04/02 05:34:00;;;;;;;9.05;7.55;;;;;;;;;;4233034;33;20109;-60
2021/04/02 05:36:26;;;;;;;10.48;7.20;;;;;;;;;;4233011;33;20190;-60
2021/04/02 05:38:52;;;;;;;9.13;7.28;;;;;;;;;;4233363;33;20176;-61
2021/04/02 05:41:24;;;;;;;9.13;5.70;;;;;;;;;;4233082;33;20105;-61
2021/04/02 05:44:00;;;;;;;8.45;6.95;;;;;;;;;;4220262;33;20116;-60
2021/04/02 05:46:26;;;;;;;14.52;7.50;;;;;;;;;;4220546;33;20128;-60
2021/04/02 05:49:00;;;;;;;10.55;6.40;;;;;;;;;;4232887;33;20509;-61
2021/04/02 05:51:27;;;;;;;7.30;6.55;;;;;;;;;;4233027;33;20180;-60
2021/04/02 05:53:54;;;;;;;8.10;6.60;;;;;;;;;;4232900;33;20101;-60
2021/04/02 05:56:20;;;;;;;8.02;5.75;;;;;;;;;;4219895;33;20105;-61
2021/04/02 05:58:47;;;;;;;8.05;6.18;;;;;;;;;;4220041;33;20434;-61
2021/04/02 06:01:13;;;;;;;6.87;5.85;;;;;;;;;;4232858;33;20681;-61
2021/04/02 06:03:39;;;;;;;7.50;5.60;;;;;;;;;;4232948;33;20533;-61
2021/04/02 06:06:08;;;;;;;8.07;5.80;;;;;;;;;;4219724;33;20569;-60
2021/04/02 06:08:34;;;;;;;9.05;6.12;;;;;;;;;;4232831;33;20185;-60
2021/04/02 06:11:00;;;;;;;8.90;5.80;;;;;;;;;;4232116;33;20188;-60
2021/04/02 06:13:26;;;;;;;8.77;6.12;;;;;;;;;;4232895;33;20132;-61
2021/04/02 06:15:51;;;;;;;10.10;6.03;;;;;;;;;;4208718;33;20105;-61
2021/04/02 06:18:17;;;;;;;6.40;5.72;;;;;;;;;;4219770;33;20125;-61
2021/04/02 06:20:48;;;;;;;9.70;6.25;;;;;;;;;;4232832;33;20212;-61
2021/04/02 06:23:24;;;;;;;9.40;6.07;;;;;;;;;;4219955;33;20596;-60
2021/04/02 06:25:51;;;;;;;9.02;6.53;;;;;;;;;;4231248;33;20152;-61
2021/04/02 06:28:35;;;;;;;8.85;5.12;;;;;;;;;;4232919;33;20442;-61
2021/04/02 06:31:01;;;;;;;8.05;5.10;;;;;;;;;;4219623;33;20120;-60
2021/04/02 06:33:32;;;;;;;9.63;5.65;;;;;;;;;;4232767;33;20113;-61
2021/04/02 06:35:58;;;;;;;9.70;3.95;;;;;;;;;;4232561;33;20090;-61
2021/04/02 06:38:33;;;;;;;12.35;5.90;;;;;;;;;;4219687;33;20123;-61
2021/04/02 06:41:03;;;;;;;9.82;4.82;;;;;;;;;;4232389;33;20117;-60
2021/04/02 06:43:51;;;;;;;9.07;5.75;;;;;;;;;;4232565;33;20547;-61
2021/04/02 06:46:18;;;;;;;8.27;5.78;;;;;;;;;;4232369;33;20109;-60
2021/04/02 06:48:45;;;;;;;10.70;7.70;;;;;;;;;;4232508;33;20184;-61
2021/04/02 06:51:14;;;;;;;11.45;5.37;;;;;;;;;;4232667;33;20100;-61
2021/04/02 06:53:42;;;;;;;8.05;4.18;;;;;;;;;;4232238;33;20192;-61
2021/04/02 06:56:08;;;;;;;6.90;4.85;;;;;;;;;;4219453;33;20113;-61
2021/04/02 06:58:34;;;;;;;7.70;4.95;;;;;;;;;;4207967;33;20300;-61
2021/04/02 07:01:03;;;;;;;9.20;4.90;;;;;;;;;;4208122;33;20553;-61
2021/04/02 07:03:32;;;;;;;6.62;5.65;;;;;;;;;;4232197;33;20109;-61
2021/04/02 07:06:02;;;;;;;9.95;5.22;;;;;;;;;;4232081;33;20119;-61
2021/04/02 07:08:28;;;;;;;5.57;3.95;;;;;;;;;;4230753;33;20493;-61
2021/04/02 07:10:58;;;;;;;9.75;5.55;;;;;;;;;;4219464;33;20228;-61
2021/04/02 07:13:24;;;;;;;9.10;5.37;;;;;;;;;;4232007;33;20101;-61
2021/04/02 07:15:51;;;;;;;12.73;5.03;;;;;;;;;;4232117;33;20128;-61
2021/04/02 07:18:17;;;;;;;8.18;4.82;;;;;;;;;;4219264;33;20121;-61
2021/04/02 07:20:43;;;;;;;11.63;4.70;;;;;;;;;;4232231;33;20139;-61
2021/04/02 07:23:09;;;;;;;4.07;3.20;;;;;;;;;;4221096;33;20220;-61
2021/04/02 07:25:35;;;;;;;8.07;4.97;;;;;;;;;;4221645;33;20576;-61
2021/04/02 07:28:01;;;;;;;8.52;3.80;;;;;;;;;;4234304;33;20128;-61
2021/04/02 07:30:27;;;;;;;7.30;4.18;;;;;;;;;;4221639;33;20100;-61
2021/04/02 07:32:53;;;;;;;6.07;4.10;;;;;;;;;;4209724;33;20120;-61
2021/04/02 07:35:21;;;;;;;7.35;4.07;;;;;;;;;;4221355;33;20104;-61
2021/04/02 07:37:52;;;;;;;13.50;5.28;;;;;;;;;;4234345;33;20094;-61
2021/04/02 07:40:23;;;;;;;7.43;4.85;;;;;;;;;;4232464;33;20508;-61
2021/04/02 07:42:53;;;;;;;7.82;4.00;;;;;;;;;;4194243;34;20126;-61
2021/04/02 07:45:21;;;;;;;9.68;3.62;;;;;;;;;;4194157;34;20636;-61
2021/04/02 07:47:56;;;;;;;9.02;4.30;;;;;;;;;;4218176;34;20098;-61
2021/04/02 07:50:42;;;;;;;5.68;3.20;;;;;;;;;;4218411;34;20131;-61
2021/04/02 07:53:20;;;;;;;17.05;4.90;;;;;;;;;;4217964;34;20125;-61
2021/04/02 07:56:19;;;;;;;5.60;3.53;;;;;;;;;;4218531;34;20113;-63
2021/04/02 07:58:52;;;;;;;9.73;4.15;;;;;;;;;;4202592;34;20162;-59
2021/04/02 08:01:22;;;;;;;9.52;4.12;;;;;;;;;;4220106;34;20105;-60
2021/04/02 08:03:49;;;;;;;15.02;4.82;;;;;;;;;;4219793;34;20277;-63
2021/04/02 08:06:35;;;;;;;10.20;4.72;;;;;;;;;;4207121;34;20541;-61
2021/04/02 08:09:03;;;;;;;10.15;4.15;;;;;;;;;;4211905;33;20089;-62
2021/04/02 08:11:32;;;;;;;9.07;3.78;;;;;;;;;;4233852;33;20121;-62
2021/04/02 08:14:08;;;;;;;6.85;3.62;;;;;;;;;;4233775;33;20189;-62
2021/04/02 08:16:55;;;;;;;4.93;4.10;;;;;;;;;;4233920;33;20106;-60
2021/04/02 08:19:38;;;;;;;8.15;4.53;;;;;;;;;;4233955;33;20089;-62
2021/04/02 08:22:09;;;;;;;5.70;4.03;;;;;;;;;;4221146;33;20097;-62
2021/04/02 08:24:38;;;;;;;10.13;3.65;;;;;;;;;;4233891;33;20113;-62
2021/04/02 08:27:05;;;;;;;16.98;3.72;;;;;;;;;;4233817;33;20093;-61
2021/04/02 08:29:31;;;;;;;9.50;3.60;;;;;;;;;;4234010;33;20264;-61
2021/04/02 08:31:59;;;;;;;7.97;3.85;;;;;;;;;;4233745;33;20113;-60
2021/04/02 08:34:27;;;;;;;5.05;2.95;;;;;;;;;;4233042;33;20216;-62
2021/04/02 08:36:55;;;;;;;6.43;3.30;;;;;;;;;;4233623;33;20093;-62
2021/04/02 08:39:24;;;;;;;5.68;2.90;;;;;;;;;;4220851;33;20120;-60
2021/04/02 08:41:54;;;;;;;12.32;3.78;;;;;;;;;;4233694;33;20125;-62
2021/04/02 08:44:27;;;;;;;12.18;3.95;;;;;;;;;;4221080;33;20149;-62
2021/04/02 08:46:54;;;;;;;8.73;3.42;;;;;;;;;;4233650;33;20176;-61
2021/04/02 08:49:23;;;;;;;10.95;4.15;;;;;;;;;;4210099;33;20156;-61
2021/04/02 08:51:51;;;;;;;10.45;4.12;;;;;;;;;;4233846;33;20450;-60
2021/04/02 08:54:19;;;;;;;15.18;4.32;;;;;;;;;;4233580;33;20092;-62
2021/04/02 08:56:45;;;;;;;11.43;3.47;;;;;;;;;;4233524;33;20131;-62
2021/04/02 08:59:12;;;;;;;10.93;4.45;;;;;;;;;;4220570;33;20133;-62
2021/04/02 09:01:47;;;;;;;6.37;4.20;;;;;;;;;;4220551;33;20166;-60
2021/04/02 09:04:15;;;;;;;12.13;4.32;;;;;;;;;;4209042;33;20550;-61
2021/04/02 09:06:41;;;;;;;11.10;4.18;;;;;;;;;;4220275;33;20114;-60
2021/04/02 09:09:18;;;;;;;8.50;4.28;;;;;;;;;;4220598;33;20204;-61
2021/04/02 09:11:45;;;;;;;16.30;4.22;;;;;;;;;;4233686;33;20308;-61
2021/04/02 09:14:11;;;;;;;8.95;4.22;;;;;;;;;;4233388;33;20121;-61
2021/04/02 09:16:39;;;;;;;14.82;5.72;;;;;;;;;;4233391;33;20109;-61
2021/04/02 09:19:04;;;;;;;13.75;4.07;;;;;;;;;;4233355;33;20193;-60
2021/04/02 09:21:31;;;;;;;8.95;3.62;;;;;;;;;;4233306;33;20552;-60
2021/04/02 09:23:57;;;;;;;13.70;4.07;;;;;;;;;;4220386;33;20291;-61
2021/04/02 09:26:22;;;;;;;18.05;4.32;;;;;;;;;;4233245;33;20555;-60
2021/04/02 09:28:48;;;;;;;7.90;3.80;;;;;;;;;;4233376;33;20121;-59
2021/04/02 09:31:19;;;;;;;11.20;4.30;;;;;;;;;;4233235;33;20125;-62
2021/04/02 09:33:46;;;;;;;14.35;4.60;;;;;;;;;;4233238;33;20138;-63
2021/04/02 09:36:12;;;;;;;5.97;3.67;;;;;;;;;;4233590;33;20120;-63
2021/04/02 09:38:39;;;;;;;14.60;4.68;;;;;;;;;;4233412;33;20097;-63
2021/04/02 09:41:05;;;;;;;19.50;4.15;;;;;;;;;;4233129;33;20109;-61
2021/04/02 09:43:44;;;;;;;15.98;3.65;;;;;;;;;;4233113;33;20119;-60
2021/04/02 09:46:33;;;;;;;6.93;3.33;;;;;;;;;;4232865;33;20136;-60
2021/04/02 09:49:08;;;;;;;12.35;3.65;;;;;;;;;;4221920;33;20113;-61
2021/04/02 09:51:42;;;;;;;4.65;3.12;;;;;;;;;;4233074;33;20124;-63
2021/04/02 09:54:09;;;;;;;6.75;3.95;;;;;;;;;;4233250;33;20132;-62
2021/04/02 09:56:36;;;;;;;7.70;3.42;;;;;;;;;;4233281;33;20136;-62
2021/04/02 09:59:02;;;;;;;12.37;3.90;;;;;;;;;;4220117;33;20196;-63
2021/04/02 10:01:28;;;;;;;12.45;3.35;;;;;;;;;;4233003;33;20105;-62
2021/04/02 10:03:54;;;;;;;11.55;3.53;;;;;;;;;;4233053;33;20447;-61
2021/04/02 10:06:20;;;;;;;15.65;3.65;;;;;;;;;;4232778;33;20113;-61
2021/04/02 10:08:46;;;;;;;7.70;3.53;;;;;;;;;;4231372;33;20173;-61
2021/04/02 10:11:12;;;;;;;14.23;3.35;;;;;;;;;;4233074;33;20094;-61
2021/04/02 10:13:38;;;;;;;7.28;3.33;;;;;;;;;;4219982;33;20113;-61
2021/04/02 10:16:05;;;;;;;6.65;3.45;;;;;;;;;;4232883;33;20288;-61
2021/04/02 10:18:31;;;;;;;11.32;5.20;;;;;;;;;;4219907;33;20190;-64
2021/04/02 10:20:57;;;;;;;15.25;5.18;;;;;;;;;;4233202;33;20501;-64
2021/04/02 10:23:24;;;;;;;12.80;5.90;;;;;;;;;;4232915;33;20120;-63
2021/04/02 10:25:50;;;;;;;16.55;4.65;;;;;;;;;;4232700;33;20532;-63
2021/04/02 10:28:16;;;;;;;10.05;3.70;;;;;;;;;;4232722;33;20160;-63
2021/04/02 10:30:42;;;;;;;9.52;4.40;;;;;;;;;;4232641;33;20105;-64
2021/04/02 10:33:08;;;;;;;8.85;2.90;;;;;;;;;;4232913;33;20494;-63
2021/04/02 10:35:37;;;;;;;14.07;2.92;;;;;;;;;;4232705;33;20200;-62
2021/04/02 10:38:07;;;;;;;6.78;2.33;;;;;;;;;;4232610;33;20188;-62
2021/04/02 10:40:35;;;;;;;9.30;3.42;;;;;;;;;;4231419;33;20159;-62
2021/04/02 10:43:02;;;;;;;6.85;2.75;;;;;;;;;;4232675;33;20465;-64
2021/04/02 10:45:28;;;;;;;10.95;3.50;;;;;;;;;;4232604;33;20123;-63
2021/04/02 10:47:54;;;;;;;7.10;2.28;;;;;;;;;;4232493;33;20148;-62
2021/04/02 10:50:22;;;;;;;12.15;3.25;;;;;;;;;;4232634;33;20147;-64
2021/04/02 10:52:49;;;;;;;6.82;4.03;;;;;;;;;;4232548;33;20125;-62
2021/04/02 10:55:15;;;;;;;7.28;3.05;;;;;;;;;;4233407;33;20473;-63
2021/04/02 10:57:41;;;;;;;14.30;4.05;;;;;;;;;;4232298;33;20117;-66
2021/04/02 11:00:07;;;;;;;15.20;2.85;;;;;;;;;;4233574;33;20144;-63
2021/04/02 11:02:33;;;;;;;12.02;3.65;;;;;;;;;;4219931;33;20117;-62
2021/04/02 11:05:00;;;;;;;15.63;4.07;;;;;;;;;;4232526;33;20180;-62
2021/04/02 11:07:26;;;;;;;11.00;3.95;;;;;;;;;;4232534;33;20125;-64
2021/04/02 11:09:52;;;;;;;16.33;3.65;;;;;;;;;;4232561;33;20114;-61
2021/04/02 11:12:18;;;;;;;10.45;3.92;;;;;;;;;;4208084;33;20184;-64
2021/04/02 11:14:44;;;;;;;10.20;3.10;;;;;;;;;;4232554;33;20111;-64
2021/04/02 11:17:10;;;;;;;19.30;3.92;;;;;;;;;;4232536;33;20111;-62
2021/04/02 11:19:36;;;;;;;19.27;3.42;;;;;;;;;;4232524;33;20450;-63
2021/04/02 11:22:03;;;;;;;20.08;3.55;;;;;;;;;;4232226;33;20504;-60
2021/04/02 11:24:30;;;;;;;24.45;3.70;;;;;;;;;;4227214;33;20424;-63
2021/04/02 11:26:56;;;;;;;21.58;4.22;;;;;;;;;;4217633;33;20137;-60
2021/04/02 11:29:23;;;;;;;19.73;4.22;;;;;;;;;;4217523;34;20122;-60
2021/04/02 11:31:49;;;;;;;26.90;3.83;;;;;;;;;;4215454;33;21617;-61
2021/04/02 11:34:15;;;;;;;17.83;3.70;;;;;;;;;;4216332;33;20148;-61
2021/04/02 11:36:41;;;;;;;16.35;3.87;;;;;;;;;;4211849;33;20613;-60
2021/04/02 11:39:06;;;;;;;23.58;3.87;;;;;;;;;;4204637;33;20136;-59
2021/04/02 11:41:32;;;;;;;20.98;3.10;;;;;;;;;;4212658;34;20189;-61
2021/04/02 11:43:58;;;;;;;27.67;4.28;;;;;;;;;;4204144;34;20106;-60
2021/04/02 11:46:24;;;;;;;16.98;4.32;;;;;;;;;;4203714;34;20241;-62
2021/04/02 11:48:51;;;;;;;34.95;5.90;;;;;;;;;;4203733;34;20133;-62
2021/04/02 11:51:17;;;;;;;48.45;6.45;;;;;;;;;;4191261;34;20095;-60
2021/04/02 11:53:43;;;;;;;38.75;5.68;;;;;;;;;;4204077;34;20490;-61
2021/04/02 11:56:09;;;;;;;37.47;4.68;;;;;;;;;;4203696;34;20109;-60
2021/04/02 11:58:35;;;;;;;30.67;4.15;;;;;;;;;;4203347;34;20105;-64
2021/04/02 12:01:01;;;;;;;27.67;4.35;;;;;;;;;;4203659;34;20145;-61
2021/04/02 12:03:27;;;;;;;25.05;3.62;;;;;;;;;;4217044;33;20186;-60
2021/04/02 12:05:53;;;;;;;22.30;4.82;;;;;;;;;;4216225;34;20213;-60
2021/04/02 12:08:19;;;;;;;29.48;4.78;;;;;;;;;;4207681;33;20125;-60
2021/04/02 12:10:45;;;;;;;23.62;4.47;;;;;;;;;;4218200;34;20556;-60
2021/04/02 12:13:11;;;;;;;40.03;5.35;;;;;;;;;;4218414;34;20220;-61
2021/04/02 12:15:37;;;;;;;32.95;5.62;;;;;;;;;;4219892;34;20144;-61
2021/04/02 12:18:04;;;;;;;57.25;6.18;;;;;;;;;;4219420;34;20113;-61
2021/04/02 12:20:30;;;;;;;45.72;5.60;;;;;;;;;;4220059;34;20493;-62
2021/04/02 12:22:55;;;;;;;54.45;6.97;;;;;;;;;;4219722;34;20229;-64
2021/04/02 12:25:21;;;;;;;51.55;6.15;;;;;;;;;;4206961;34;20153;-63
2021/04/02 12:27:47;;;;;;;55.65;7.85;;;;;;;;;;4206636;34;20113;-63
2021/04/02 12:30:15;;;;;;;40.17;5.05;;;;;;;;;;4219485;34;20514;-63
2021/04/02 12:32:41;;;;;;;52.10;4.50;;;;;;;;;;4206586;34;20117;-60
2021/04/02 12:35:08;;;;;;;52.55;7.10;;;;;;;;;;4219692;34;20554;-62
2021/04/02 12:37:33;;;;;;;51.13;6.00;;;;;;;;;;4206509;34;20117;-63
2021/04/02 12:40:00;;;;;;;41.70;4.78;;;;;;;;;;4219563;34;20117;-62
2021/04/02 12:42:26;;;;;;;34.50;5.12;;;;;;;;;;4219425;34;20517;-62
2021/04/02 12:44:53;;;;;;;58.97;8.20;;;;;;;;;;4219726;34;20132;-60
2021/04/02 12:47:19;;;;;;;39.30;6.62;;;;;;;;;;4219357;34;20155;-58
2021/04/02 12:49:45;;;;;;;41.10;4.78;;;;;;;;;;4219532;34;20118;-60
2021/04/02 12:52:11;;;;;;;46.72;5.95;;;;;;;;;;4219354;34;20153;-57
2021/04/02 12:54:40;;;;;;;51.10;6.90;;;;;;;;;;4219180;34;20118;-62
2021/04/02 12:57:07;;;;;;;50.67;6.82;;;;;;;;;;4219294;34;20132;-59
2021/04/02 12:59:33;;;;;;;55.05;8.50;;;;;;;;;;4204990;34;20212;-59
2021/04/02 13:01:59;;;;;;;60.25;6.57;;;;;;;;;;4218862;34;20565;-59
2021/04/02 13:04:25;;;;;;;64.07;6.72;;;;;;;;;;4206480;34;20151;-59
2021/04/02 13:06:51;;;;;;;88.35;9.43;;;;;;;;;;4223806;33;20106;-61
2021/04/02 13:09:17;;;;;;;69.72;6.65;;;;;;;;;;4232471;33;20124;-58
2021/04/02 13:11:43;;;;;;;74.53;9.23;;;;;;;;;;4232561;33;20116;-58
2021/04/02 13:14:09;;;;;;;59.80;8.85;;;;;;;;;;4232548;33;20136;-58
2021/04/02 13:16:39;;;;;;;82.68;11.93;;;;;;;;;;4220679;33;20113;-58
2021/04/02 13:19:08;;;;;;;59.92;6.75;;;;;;;;;;4218161;34;20113;-61
2021/04/02 13:21:35;;;;;;;46.50;6.15;;;;;;;;;;4218546;34;20127;-59
2021/04/02 13:24:02;;;;;;;73.72;7.37;;;;;;;;;;4219310;34;20144;-60
2021/04/02 13:26:28;;;;;;;50.20;8.43;;;;;;;;;;4219571;34;20124;-61
2021/04/02 13:28:54;;;;;;;68.95;7.93;;;;;;;;;;4219306;34;20118;-60
2021/04/02 13:31:20;;;;;;;51.20;7.85;;;;;;;;;;4217760;34;20204;-61
2021/04/02 13:33:46;;;;;;;39.03;5.85;;;;;;;;;;4218171;34;20230;-63
2021/04/02 13:36:19;;;;;;;52.60;7.22;;;;;;;;;;4219224;34;20120;-61
2021/04/02 13:38:49;;;;;;;64.62;7.75;;;;;;;;;;4219350;34;20205;-60
2021/04/02 13:41:15;;;;;;;53.60;6.93;;;;;;;;;;4219147;34;20208;-59
2021/04/02 13:43:42;;;;;;;54.33;8.13;;;;;;;;;;4219183;34;20197;-61
2021/04/02 13:46:11;;;;;;;41.15;6.78;;;;;;;;;;4216457;33;20140;-60
2021/04/02 13:48:37;;;;;;;42.28;7.15;;;;;;;;;;4232783;33;20125;-60
2021/04/02 13:51:03;;;;;;;49.33;6.30;;;;;;;;;;4223758;33;20200;-61
2021/04/02 13:53:29;;;;;;;47.47;5.93;;;;;;;;;;4219048;34;20089;-61
2021/04/02 13:55:56;;;;;;;49.25;6.65;;;;;;;;;;4218505;34;20522;-60
2021/04/02 13:58:22;;;;;;;35.78;4.37;;;;;;;;;;4219235;34;20565;-60
2021/04/02 14:00:48;;;;;;;32.85;4.35;;;;;;;;;;4218507;34;20132;-61
2021/04/02 14:03:14;;;;;;;27.15;3.62;;;;;;;;;;4215861;33;20094;-68
2021/04/02 14:05:41;;;;;;;47.58;5.97;;;;;;;;;;4218503;33;20529;-60
2021/04/02 14:08:07;;;;;;;33.40;5.20;;;;;;;;;;4217345;34;20197;-59
2021/04/02 14:10:36;;;;;;;58.55;7.53;;;;;;;;;;4216522;34;20212;-61
2021/04/02 14:13:08;;;;;;;32.30;4.03;;;;;;;;;;4216404;34;20200;-61
2021/04/02 14:15:35;;;;;;;40.17;3.92;;;;;;;;;;4204058;34;20167;-62
2021/04/02 14:18:01;;;;;;;35.30;4.93;;;;;;;;;;4216574;34;20400;-63
2021/04/02 14:20:29;;;;;;;36.72;4.55;;;;;;;;;;4216460;34;20109;-62
2021/04/02 14:22:56;;;;;;;26.98;4.70;;;;;;;;;;4216743;34;20226;-59
2021/04/02 14:25:22;;;;;;;24.63;3.72;;;;;;;;;;4218022;34;20154;-62
2021/04/02 14:27:58;;;;;;;27.83;4.72;;;;;;;;;;4218738;34;20308;-62
2021/04/02 14:30:31;;;;;;;25.73;4.03;;;;;;;;;;4218710;34;20117;-62
2021/04/02 14:32:57;;;;;;;21.90;4.40;;;;;;;;;;4218415;34;20515;-60
2021/04/02 14:35:29;;;;;;;21.80;3.50;;;;;;;;;;4218862;34;20108;-59
2021/04/02 14:37:54;;;;;;;14.77;3.05;;;;;;;;;;4218745;34;20143;-62
2021/04/02 14:40:20;;;;;;;14.48;3.45;;;;;;;;;;4218640;34;20136;-60
2021/04/02 14:42:47;;;;;;;19.45;2.75;;;;;;;;;;4205938;34;20117;-61
2021/04/02 14:45:13;;;;;;;11.43;3.00;;;;;;;;;;4218900;34;20109;-61